메인 페이지
METAR-TAF:

METAR-TAF

공항 :

마타베리 국제공항

이스터 섬, 칠레

위도: 27-09S, 경도: 109-25W, 고도: 51m

현재 날씨관측

예보는 1 시간 3분 전, 22:00시(UTC)에 발표되었습니다.
12kt
온도 22°C
습도 73%
기압 1025 hPa
시정 10km 이상
고도 2000ft 상공 구름 보통
고도 4000ft 상공 구름 보통

METAR: SCIP 012200Z 10012KT 9999 SCT020 SCT040 22/17 Q1025 NOSIG

시각: 17:03 (23:03 UTC)

예보

예보는 7 시간 3분 전, 16:00시(UTC)에 발표되었습니다.
예보 대상 시간: 01일 18시부터 02일 18시까지 (UTC)
10kt
시정 10km 이상
고도 2500ft 상공 구름 보통
일시적
01일 22시부터 02일 08시까지 (UTC)
시정: 7000m
고도 1500ft 상공 구름 보통
고도 4000ft 상공 구름 많음
약한소나기
전환 중
02일 10시부터 02일 12시까지 (UTC)
고도 2000ft 상공 구름 조금
고도 4000ft 상공 구름 보통

TAF: SCIP 011600Z 0118/0218 09010KT 9999 SCT025 TX23/0120Z TN17/0210Z TEMPO 0122/0208 7000 -SHRA SCT015 BKN040 BECMG 0210/0212 FEW020 SCT040

4,000개 이상의 공항 관측 자료 및 예보 (METAR 및 TAF 보고).

지도상에서 검색 가능한 기상관측소가 노란 점과 빨간 점으로 표시되어 있습니다.

기상관측소 명을 보려면 표시 위로 마우스를 이동하세요.

날씨 관측과 예보를 보려면 클릭하세요.

지도 변경 : 확대하려면 엑스 표시가 있는 녹색 버튼, 축소하려면 빼기 표시가 있는 녹색 버튼, 다음 페이지의 지도를 보려면 녹색 화살표를 클릭하세요.


METAR-TAF: